sensor_id;sensor_type;location;lat;lon;timestamp;temperature;humidity
22491;DHT22;11412;50.802;4.350;2022-11-25T00:00:00;13.10;99.90
22491;DHT22;11412;50.802;4.350;2022-11-25T00:02:26;12.90;99.90
22491;DHT22;11412;50.802;4.350;2022-11-25T00:04:52;13.10;99.90
22491;DHT22;11412;50.802;4.350;2022-11-25T00:07:17;13.10;99.90
22491;DHT22;11412;50.802;4.350;2022-11-25T00:09:43;13.00;99.90
22491;DHT22;11412;50.802;4.350;2022-11-25T00:12:08;13.10;99.90
22491;DHT22;11412;50.802;4.350;2022-11-25T00:14:34;13.10;99.90
22491;DHT22;11412;50.802;4.350;2022-11-25T00:17:00;13.00;99.90
22491;DHT22;11412;50.802;4.350;2022-11-25T00:19:25;12.90;99.90
22491;DHT22;11412;50.802;4.350;2022-11-25T00:21:51;13.00;99.90
22491;DHT22;11412;50.802;4.350;2022-11-25T00:24:17;13.00;99.90
22491;DHT22;11412;50.802;4.350;2022-11-25T00:26:42;12.90;99.90
22491;DHT22;11412;50.802;4.350;2022-11-25T00:29:10;12.50;99.90
22491;DHT22;11412;50.802;4.350;2022-11-25T00:31:38;12.80;99.90
22491;DHT22;11412;50.802;4.350;2022-11-25T00:34:04;12.60;99.90
22491;DHT22;11412;50.802;4.350;2022-11-25T00:36:34;12.30;99.90
22491;DHT22;11412;50.802;4.350;2022-11-25T00:39:02;12.20;99.90
22491;DHT22;11412;50.802;4.350;2022-11-25T00:41:28;12.30;99.90
22491;DHT22;11412;50.802;4.350;2022-11-25T00:44:14;12.10;99.90
22491;DHT22;11412;50.802;4.350;2022-11-25T00:46:59;11.90;99.90
22491;DHT22;11412;50.802;4.350;2022-11-25T00:49:26;11.80;99.90
22491;DHT22;11412;50.802;4.350;2022-11-25T00:51:51;11.60;99.90
22491;DHT22;11412;50.802;4.350;2022-11-25T00:54:17;11.60;99.90
22491;DHT22;11412;50.802;4.350;2022-11-25T00:56:43;11.40;99.90
22491;DHT22;11412;50.802;4.350;2022-11-25T00:59:08;11.30;99.90
22491;DHT22;11412;50.802;4.350;2022-11-25T01:01:35;11.30;99.90
22491;DHT22;11412;50.802;4.350;2022-11-25T01:04:01;11.00;99.90
22491;DHT22;11412;50.802;4.350;2022-11-25T01:06:27;11.10;99.90
22491;DHT22;11412;50.802;4.350;2022-11-25T01:08:52;10.90;99.90
22491;DHT22;11412;50.802;4.350;2022-11-25T01:11:20;10.80;99.90
22491;DHT22;11412;50.802;4.350;2022-11-25T01:13:46;10.80;99.90
22491;DHT22;11412;50.802;4.350;2022-11-25T01:16:14;10.70;99.90
22491;DHT22;11412;50.802;4.350;2022-11-25T01:18:41;10.50;99.90
22491;DHT22;11412;50.802;4.350;2022-11-25T01:21:08;10.90;99.90
22491;DHT22;11412;50.802;4.350;2022-11-25T01:23:34;11.10;99.90
22491;DHT22;11412;50.802;4.350;2022-11-25T01:26:01;11.10;99.90
22491;DHT22;11412;50.802;4.350;2022-11-25T01:28:27;10.70;99.90
22491;DHT22;11412;50.802;4.350;2022-11-25T01:31:00;10.60;99.90
22491;DHT22;11412;50.802;4.350;2022-11-25T01:33:27;10.80;99.90
22491;DHT22;11412;50.802;4.350;2022-11-25T01:35:53;10.70;99.90
22491;DHT22;11412;50.802;4.350;2022-11-25T01:38:19;10.50;99.90
22491;DHT22;11412;50.802;4.350;2022-11-25T01:40:44;10.50;99.90
22491;DHT22;11412;50.802;4.350;2022-11-25T01:43:13;10.30;99.90
22491;DHT22;11412;50.802;4.350;2022-11-25T01:45:39;10.30;99.90
22491;DHT22;11412;50.802;4.350;2022-11-25T01:48:15;10.30;99.90
22491;DHT22;11412;50.802;4.350;2022-11-25T01:50:44;10.30;99.90
22491;DHT22;11412;50.802;4.350;2022-11-25T01:53:13;10.30;99.90
22491;DHT22;11412;50.802;4.350;2022-11-25T01:55:43;10.20;99.90
22491;DHT22;11412;50.802;4.350;2022-11-25T01:58:14;10.20;99.90
22491;DHT22;11412;50.802;4.350;2022-11-25T02:00:40;10.20;99.90
22491;DHT22;11412;50.802;4.350;2022-11-25T02:03:06;10.30;99.90
22491;DHT22;11412;50.802;4.350;2022-11-25T02:06:09;10.40;99.90
22491;DHT22;11412;50.802;4.350;2022-11-25T02:08:37;10.30;99.90
22491;DHT22;11412;50.802;4.350;2022-11-25T02:11:04;10.40;99.90
22491;DHT22;11412;50.802;4.350;2022-11-25T02:13:31;10.30;99.90
22491;DHT22;11412;50.802;4.350;2022-11-25T02:15:57;10.20;99.90
22491;DHT22;11412;50.802;4.350;2022-11-25T02:18:22;10.20;99.90
22491;DHT22;11412;50.802;4.350;2022-11-25T02:20:49;10.10;99.90
22491;DHT22;11412;50.802;4.350;2022-11-25T02:23:31;10.50;99.90
22491;DHT22;11412;50.802;4.350;2022-11-25T02:25:58;10.40;99.90
22491;DHT22;11412;50.802;4.350;2022-11-25T02:28:26;10.20;99.90
22491;DHT22;11412;50.802;4.350;2022-11-25T02:30:54;10.20;99.90
22491;DHT22;11412;50.802;4.350;2022-11-25T02:33:19;10.20;99.90
22491;DHT22;11412;50.802;4.350;2022-11-25T02:36:16;10.10;99.90
22491;DHT22;11412;50.802;4.350;2022-11-25T02:38:55;10.10;99.90
22491;DHT22;11412;50.802;4.350;2022-11-25T02:41:28;10.00;99.90
22491;DHT22;11412;50.802;4.350;2022-11-25T02:43:54;10.00;99.90
22491;DHT22;11412;50.802;4.350;2022-11-25T02:46:22;9.90;99.90
22491;DHT22;11412;50.802;4.350;2022-11-25T02:48:50;9.90;99.90
22491;DHT22;11412;50.802;4.350;2022-11-25T02:51:18;9.80;99.90
22491;DHT22;11412;50.802;4.350;2022-11-25T02:53:44;9.90;99.90
22491;DHT22;11412;50.802;4.350;2022-11-25T02:56:12;9.80;99.90
22491;DHT22;11412;50.802;4.350;2022-11-25T02:58:38;10.00;99.90
22491;DHT22;11412;50.802;4.350;2022-11-25T03:01:04;9.80;99.90
22491;DHT22;11412;50.802;4.350;2022-11-25T03:03:30;9.70;99.90
22491;DHT22;11412;50.802;4.350;2022-11-25T03:05:55;9.70;99.90
22491;DHT22;11412;50.802;4.350;2022-11-25T03:08:21;9.60;99.90
22491;DHT22;11412;50.802;4.350;2022-11-25T03:10:47;9.80;99.90
22491;DHT22;11412;50.802;4.350;2022-11-25T03:13:12;9.80;99.90
22491;DHT22;11412;50.802;4.350;2022-11-25T03:15:39;9.60;99.90
22491;DHT22;11412;50.802;4.350;2022-11-25T03:18:05;9.60;99.90
22491;DHT22;11412;50.802;4.350;2022-11-25T03:20:31;9.90;99.90
22491;DHT22;11412;50.802;4.350;2022-11-25T03:22:56;9.80;99.90
22491;DHT22;11412;50.802;4.350;2022-11-25T03:25:22;9.70;99.90
22491;DHT22;11412;50.802;4.350;2022-11-25T03:27:48;9.60;99.90
22491;DHT22;11412;50.802;4.350;2022-11-25T03:30:19;9.60;99.90
22491;DHT22;11412;50.802;4.350;2022-11-25T03:32:45;9.70;99.90
22491;DHT22;11412;50.802;4.350;2022-11-25T03:35:12;9.80;99.90
22491;DHT22;11412;50.802;4.350;2022-11-25T03:37:38;10.00;99.90
22491;DHT22;11412;50.802;4.350;2022-11-25T03:40:05;10.00;99.90
22491;DHT22;11412;50.802;4.350;2022-11-25T03:42:31;10.00;99.90
22491;DHT22;11412;50.802;4.350;2022-11-25T03:44:57;10.30;99.90
22491;DHT22;11412;50.802;4.350;2022-11-25T03:47:23;10.60;99.90
22491;DHT22;11412;50.802;4.350;2022-11-25T03:49:48;10.50;99.90
22491;DHT22;11412;50.802;4.350;2022-11-25T03:52:14;10.70;99.90
22491;DHT22;11412;50.802;4.350;2022-11-25T03:54:40;10.60;99.90
22491;DHT22;11412;50.802;4.350;2022-11-25T03:57:05;10.40;99.90
22491;DHT22;11412;50.802;4.350;2022-11-25T03:59:31;10.60;99.90
22491;DHT22;11412;50.802;4.350;2022-11-25T04:01:57;10.90;99.90
22491;DHT22;11412;50.802;4.350;2022-11-25T04:04:22;10.90;99.90
22491;DHT22;11412;50.802;4.350;2022-11-25T04:06:48;10.80;99.90
22491;DHT22;11412;50.802;4.350;2022-11-25T04:09:14;10.60;99.90
22491;DHT22;11412;50.802;4.350;2022-11-25T04:11:39;10.70;99.90
22491;DHT22;11412;50.802;4.350;2022-11-25T04:14:23;10.70;99.90
22491;DHT22;11412;50.802;4.350;2022-11-25T04:16:49;10.60;99.90
22491;DHT22;11412;50.802;4.350;2022-11-25T04:19:15;10.80;99.90
22491;DHT22;11412;50.802;4.350;2022-11-25T04:21:41;10.70;99.90
22491;DHT22;11412;50.802;4.350;2022-11-25T04:24:07;10.60;99.90
22491;DHT22;11412;50.802;4.350;2022-11-25T04:26:33;10.40;99.90
22491;DHT22;11412;50.802;4.350;2022-11-25T04:28:59;10.50;99.90
22491;DHT22;11412;50.802;4.350;2022-11-25T04:31:24;10.50;99.90
22491;DHT22;11412;50.802;4.350;2022-11-25T04:33:50;10.40;99.90
22491;DHT22;11412;50.802;4.350;2022-11-25T04:36:16;10.40;99.90
22491;DHT22;11412;50.802;4.350;2022-11-25T04:38:41;10.70;99.90
22491;DHT22;11412;50.802;4.350;2022-11-25T04:41:07;10.90;99.90
22491;DHT22;11412;50.802;4.350;2022-11-25T04:43:33;10.70;99.90
22491;DHT22;11412;50.802;4.350;2022-11-25T04:45:59;10.40;99.90
22491;DHT22;11412;50.802;4.350;2022-11-25T04:48:25;10.30;99.90
22491;DHT22;11412;50.802;4.350;2022-11-25T04:50:51;10.10;99.90
22491;DHT22;11412;50.802;4.350;2022-11-25T04:53:16;10.10;99.90
22491;DHT22;11412;50.802;4.350;2022-11-25T04:55:43;10.10;99.90
22491;DHT22;11412;50.802;4.350;2022-11-25T04:58:12;10.00;99.90
22491;DHT22;11412;50.802;4.350;2022-11-25T05:00:38;10.30;99.90
22491;DHT22;11412;50.802;4.350;2022-11-25T05:03:03;10.60;99.90
22491;DHT22;11412;50.802;4.350;2022-11-25T05:05:29;10.60;99.90
22491;DHT22;11412;50.802;4.350;2022-11-25T05:07:55;10.30;99.90
22491;DHT22;11412;50.802;4.350;2022-11-25T05:10:21;10.30;99.90
22491;DHT22;11412;50.802;4.350;2022-11-25T05:12:46;10.20;99.90
22491;DHT22;11412;50.802;4.350;2022-11-25T05:15:12;10.00;99.90
22491;DHT22;11412;50.802;4.350;2022-11-25T05:17:38;10.10;99.90
22491;DHT22;11412;50.802;4.350;2022-11-25T05:20:05;10.40;99.90
22491;DHT22;11412;50.802;4.350;2022-11-25T05:22:32;10.60;99.90
22491;DHT22;11412;50.802;4.350;2022-11-25T05:24:58;10.50;99.90
22491;DHT22;11412;50.802;4.350;2022-11-25T05:27:25;10.20;99.90
22491;DHT22;11412;50.802;4.350;2022-11-25T05:29:51;9.90;99.90
22491;DHT22;11412;50.802;4.350;2022-11-25T05:32:17;9.80;99.90
22491;DHT22;11412;50.802;4.350;2022-11-25T05:34:43;9.40;99.90
22491;DHT22;11412;50.802;4.350;2022-11-25T05:37:12;9.30;99.90
22491;DHT22;11412;50.802;4.350;2022-11-25T05:39:38;9.20;99.90
22491;DHT22;11412;50.802;4.350;2022-11-25T05:42:04;9.20;99.90
22491;DHT22;11412;50.802;4.350;2022-11-25T05:44:30;9.10;99.90
22491;DHT22;11412;50.802;4.350;2022-11-25T05:46:55;9.10;99.90
22491;DHT22;11412;50.802;4.350;2022-11-25T05:49:21;9.00;99.90
22491;DHT22;11412;50.802;4.350;2022-11-25T05:51:47;9.00;99.90
22491;DHT22;11412;50.802;4.350;2022-11-25T05:54:13;8.90;99.90
22491;DHT22;11412;50.802;4.350;2022-11-25T05:56:39;9.10;99.90
22491;DHT22;11412;50.802;4.350;2022-11-25T05:59:05;9.00;99.90
22491;DHT22;11412;50.802;4.350;2022-11-25T06:01:32;9.10;99.90
22491;DHT22;11412;50.802;4.350;2022-11-25T06:04:02;9.20;99.90
22491;DHT22;11412;50.802;4.350;2022-11-25T06:06:29;9.50;99.90
22491;DHT22;11412;50.802;4.350;2022-11-25T06:08:55;9.80;99.90
22491;DHT22;11412;50.802;4.350;2022-11-25T06:11:21;9.90;99.90
22491;DHT22;11412;50.802;4.350;2022-11-25T06:13:47;10.10;99.90
22491;DHT22;11412;50.802;4.350;2022-11-25T06:16:15;10.00;99.90
22491;DHT22;11412;50.802;4.350;2022-11-25T06:18:41;9.90;99.90
22491;DHT22;11412;50.802;4.350;2022-11-25T06:21:08;9.70;99.90
22491;DHT22;11412;50.802;4.350;2022-11-25T06:23:34;9.70;99.90
22491;DHT22;11412;50.802;4.350;2022-11-25T06:26:16;10.10;99.90
22491;DHT22;11412;50.802;4.350;2022-11-25T06:28:42;9.80;99.90
22491;DHT22;11412;50.802;4.350;2022-11-25T06:31:14;9.60;99.90
22491;DHT22;11412;50.802;4.350;2022-11-25T06:33:40;9.80;99.90
22491;DHT22;11412;50.802;4.350;2022-11-25T06:36:08;9.50;99.90
22491;DHT22;11412;50.802;4.350;2022-11-25T06:38:37;9.50;99.90
22491;DHT22;11412;50.802;4.350;2022-11-25T06:41:04;9.40;99.90
22491;DHT22;11412;50.802;4.350;2022-11-25T06:43:31;9.40;99.90
22491;DHT22;11412;50.802;4.350;2022-11-25T06:46:07;9.50;99.90
22491;DHT22;11412;50.802;4.350;2022-11-25T06:48:34;9.50;99.90
22491;DHT22;11412;50.802;4.350;2022-11-25T06:51:02;9.80;99.90
22491;DHT22;11412;50.802;4.350;2022-11-25T06:53:29;9.70;99.90
22491;DHT22;11412;50.802;4.350;2022-11-25T06:56:07;9.70;99.90
22491;DHT22;11412;50.802;4.350;2022-11-25T06:58:34;9.40;99.90
22491;DHT22;11412;50.802;4.350;2022-11-25T07:01:11;9.70;99.90
22491;DHT22;11412;50.802;4.350;2022-11-25T07:03:38;10.00;99.90
22491;DHT22;11412;50.802;4.350;2022-11-25T07:06:04;9.90;99.90
22491;DHT22;11412;50.802;4.350;2022-11-25T07:08:30;9.60;99.90
22491;DHT22;11412;50.802;4.350;2022-11-25T07:11:09;9.70;99.90
22491;DHT22;11412;50.802;4.350;2022-11-25T07:13:36;9.50;99.90
22491;DHT22;11412;50.802;4.350;2022-11-25T07:16:05;9.70;99.90
22491;DHT22;11412;50.802;4.350;2022-11-25T07:18:33;9.40;99.90
22491;DHT22;11412;50.802;4.350;2022-11-25T07:21:15;9.20;99.90
22491;DHT22;11412;50.802;4.350;2022-11-25T07:23:42;9.30;99.90
22491;DHT22;11412;50.802;4.350;2022-11-25T07:26:16;9.30;99.90
22491;DHT22;11412;50.802;4.350;2022-11-25T07:28:43;9.10;99.90
22491;DHT22;11412;50.802;4.350;2022-11-25T07:33:44;9.20;99.90
22491;DHT22;11412;50.802;4.350;2022-11-25T07:36:11;9.20;99.90
22491;DHT22;11412;50.802;4.350;2022-11-25T07:38:38;9.30;99.90
22491;DHT22;11412;50.802;4.350;2022-11-25T07:41:05;9.40;99.90
22491;DHT22;11412;50.802;4.350;2022-11-25T07:43:32;9.50;99.90
22491;DHT22;11412;50.802;4.350;2022-11-25T07:48:44;9.20;99.90
22491;DHT22;11412;50.802;4.350;2022-11-25T07:51:14;9.40;99.90
22491;DHT22;11412;50.802;4.350;2022-11-25T07:53:40;9.50;99.90
22491;DHT22;11412;50.802;4.350;2022-11-25T07:56:06;9.70;99.90
22491;DHT22;11412;50.802;4.350;2022-11-25T07:58:32;9.80;99.90
22491;DHT22;11412;50.802;4.350;2022-11-25T08:01:02;9.80;99.90
22491;DHT22;11412;50.802;4.350;2022-11-25T08:03:27;9.70;99.90
22491;DHT22;11412;50.802;4.350;2022-11-25T08:05:53;9.70;99.90
22491;DHT22;11412;50.802;4.350;2022-11-25T08:08:19;9.60;99.90
22491;DHT22;11412;50.802;4.350;2022-11-25T08:10:44;9.70;99.90
22491;DHT22;11412;50.802;4.350;2022-11-25T08:13:10;9.70;99.90
22491;DHT22;11412;50.802;4.350;2022-11-25T08:15:36;10.10;99.90
22491;DHT22;11412;50.802;4.350;2022-11-25T08:18:01;9.80;99.90
22491;DHT22;11412;50.802;4.350;2022-11-25T08:20:27;10.00;99.90
22491;DHT22;11412;50.802;4.350;2022-11-25T08:22:53;9.80;99.90
22491;DHT22;11412;50.802;4.350;2022-11-25T08:25:19;9.70;99.90
22491;DHT22;11412;50.802;4.350;2022-11-25T08:27:44;9.60;99.90
22491;DHT22;11412;50.802;4.350;2022-11-25T08:30:12;9.90;99.90
22491;DHT22;11412;50.802;4.350;2022-11-25T08:32:38;9.80;99.90
22491;DHT22;11412;50.802;4.350;2022-11-25T08:35:04;10.00;99.90
22491;DHT22;11412;50.802;4.350;2022-11-25T08:37:30;10.10;99.90
22491;DHT22;11412;50.802;4.350;2022-11-25T08:39:56;10.00;99.90
22491;DHT22;11412;50.802;4.350;2022-11-25T08:42:22;10.00;99.90
22491;DHT22;11412;50.802;4.350;2022-11-25T08:44:54;10.10;99.90
22491;DHT22;11412;50.802;4.350;2022-11-25T08:47:21;10.10;99.90
22491;DHT22;11412;50.802;4.350;2022-11-25T08:49:51;10.20;99.90
22491;DHT22;11412;50.802;4.350;2022-11-25T08:52:17;10.30;99.90
22491;DHT22;11412;50.802;4.350;2022-11-25T08:54:42;10.10;99.90
22491;DHT22;11412;50.802;4.350;2022-11-25T08:57:08;9.80;99.90
22491;DHT22;11412;50.802;4.350;2022-11-25T08:59:34;9.80;99.90
22491;DHT22;11412;50.802;4.350;2022-11-25T09:02:00;9.70;99.90
22491;DHT22;11412;50.802;4.350;2022-11-25T09:04:25;9.70;99.90
22491;DHT22;11412;50.802;4.350;2022-11-25T09:06:51;9.70;99.90
22491;DHT22;11412;50.802;4.350;2022-11-25T09:09:16;9.80;99.90
22491;DHT22;11412;50.802;4.350;2022-11-25T09:11:42;10.00;99.90
22491;DHT22;11412;50.802;4.350;2022-11-25T09:14:08;10.20;99.90
22491;DHT22;11412;50.802;4.350;2022-11-25T09:16:33;10.50;99.90
22491;DHT22;11412;50.802;4.350;2022-11-25T09:18:59;10.80;99.90
22491;DHT22;11412;50.802;4.350;2022-11-25T09:21:25;11.10;99.90
22491;DHT22;11412;50.802;4.350;2022-11-25T09:23:51;11.10;99.90
22491;DHT22;11412;50.802;4.350;2022-11-25T09:26:27;10.90;99.90
22491;DHT22;11412;50.802;4.350;2022-11-25T09:28:53;10.60;99.90
22491;DHT22;11412;50.802;4.350;2022-11-25T09:31:20;10.40;99.90
22491;DHT22;11412;50.802;4.350;2022-11-25T09:33:46;10.30;99.90
22491;DHT22;11412;50.802;4.350;2022-11-25T09:36:14;10.30;99.90
22491;DHT22;11412;50.802;4.350;2022-11-25T09:38:40;10.10;99.90
22491;DHT22;11412;50.802;4.350;2022-11-25T09:41:30;10.00;99.90
22491;DHT22;11412;50.802;4.350;2022-11-25T09:50:11;10.50;99.90
22491;DHT22;11412;50.802;4.350;2022-11-25T09:55:22;11.30;99.90
22491;DHT22;11412;50.802;4.350;2022-11-25T10:00:43;11.90;99.90
22491;DHT22;11412;50.802;4.350;2022-11-25T10:03:17;12.10;99.90
22491;DHT22;11412;50.802;4.350;2022-11-25T10:08:27;12.00;99.90
22491;DHT22;11412;50.802;4.350;2022-11-25T10:11:13;11.60;99.90
22491;DHT22;11412;50.802;4.350;2022-11-25T10:16:24;11.80;99.90
22491;DHT22;11412;50.802;4.350;2022-11-25T10:21:55;12.50;99.90
22491;DHT22;11412;50.802;4.350;2022-11-25T10:24:20;13.20;99.90
22491;DHT22;11412;50.802;4.350;2022-11-25T10:27:00;13.70;99.90
22491;DHT22;11412;50.802;4.350;2022-11-25T10:29:30;13.90;99.90
22491;DHT22;11412;50.802;4.350;2022-11-25T10:32:22;13.60;99.90
22491;DHT22;11412;50.802;4.350;2022-11-25T10:35:00;13.20;99.90
22491;DHT22;11412;50.802;4.350;2022-11-25T10:37:34;13.60;99.90
22491;DHT22;11412;50.802;4.350;2022-11-25T10:40:01;13.40;99.90
22491;DHT22;11412;50.802;4.350;2022-11-25T10:42:27;13.20;99.90
22491;DHT22;11412;50.802;4.350;2022-11-25T10:44:53;13.20;99.90
22491;DHT22;11412;50.802;4.350;2022-11-25T10:52:32;12.90;99.90
22491;DHT22;11412;50.802;4.350;2022-11-25T10:55:15;13.10;99.90
22491;DHT22;11412;50.802;4.350;2022-11-25T10:57:41;12.40;99.90
22491;DHT22;11412;50.802;4.350;2022-11-25T11:00:36;12.20;99.90
22491;DHT22;11412;50.802;4.350;2022-11-25T11:03:21;12.00;99.90
22491;DHT22;11412;50.802;4.350;2022-11-25T11:05:50;12.40;99.90
22491;DHT22;11412;50.802;4.350;2022-11-25T11:08:20;12.10;99.90
22491;DHT22;11412;50.802;4.350;2022-11-25T11:13:33;12.30;99.90
22491;DHT22;11412;50.802;4.350;2022-11-25T11:15:59;12.10;99.90
22491;DHT22;11412;50.802;4.350;2022-11-25T11:21:05;11.80;99.90
22491;DHT22;11412;50.802;4.350;2022-11-25T11:23:50;11.60;99.90
22491;DHT22;11412;50.802;4.350;2022-11-25T11:26:24;11.50;99.90
22491;DHT22;11412;50.802;4.350;2022-11-25T11:29:14;11.50;99.90
22491;DHT22;11412;50.802;4.350;2022-11-25T11:31:47;11.50;99.90
22491;DHT22;11412;50.802;4.350;2022-11-25T11:40:41;12.10;99.90
22491;DHT22;11412;50.802;4.350;2022-11-25T11:43:02;12.70;99.90
22491;DHT22;11412;50.802;4.350;2022-11-25T11:59:17;12.90;99.90
22491;DHT22;11412;50.802;4.350;2022-11-25T12:02:16;13.50;99.90
22491;DHT22;11412;50.802;4.350;2022-11-25T12:05:14;14.10;99.90
22491;DHT22;11412;50.802;4.350;2022-11-25T12:10:27;14.50;99.90
22491;DHT22;11412;50.802;4.350;2022-11-25T12:16:31;14.10;99.90
22491;DHT22;11412;50.802;4.350;2022-11-25T12:21:55;14.50;99.90
22491;DHT22;11412;50.802;4.350;2022-11-25T12:24:32;14.70;99.90
22491;DHT22;11412;50.802;4.350;2022-11-25T12:27:04;15.00;99.90
22491;DHT22;11412;50.802;4.350;2022-11-25T12:30:07;14.50;99.90
22491;DHT22;11412;50.802;4.350;2022-11-25T12:40:15;14.20;99.90
22491;DHT22;11412;50.802;4.350;2022-11-25T12:42:43;14.50;99.90
22491;DHT22;11412;50.802;4.350;2022-11-25T12:45:23;14.30;99.90
22491;DHT22;11412;50.802;4.350;2022-11-25T12:47:50;13.90;99.90
22491;DHT22;11412;50.802;4.350;2022-11-25T12:50:21;14.20;99.90
22491;DHT22;11412;50.802;4.350;2022-11-25T12:55:23;14.70;99.90
22491;DHT22;11412;50.802;4.350;2022-11-25T13:00:30;15.20;99.90
22491;DHT22;11412;50.802;4.350;2022-11-25T13:06:25;14.80;99.90
22491;DHT22;11412;50.802;4.350;2022-11-25T13:09:18;15.00;99.90
22491;DHT22;11412;50.802;4.350;2022-11-25T13:17:42;15.50;99.90
22491;DHT22;11412;50.802;4.350;2022-11-25T13:23:05;15.30;99.90
22491;DHT22;11412;50.802;4.350;2022-11-25T13:25:41;14.70;99.90
22491;DHT22;11412;50.802;4.350;2022-11-25T13:28:35;14.50;99.90
22491;DHT22;11412;50.802;4.350;2022-11-25T13:34:30;14.30;99.90
22491;DHT22;11412;50.802;4.350;2022-11-25T13:36:58;14.10;99.90
22491;DHT22;11412;50.802;4.350;2022-11-25T13:39:36;13.90;99.90
22491;DHT22;11412;50.802;4.350;2022-11-25T13:42:22;13.50;99.90
22491;DHT22;11412;50.802;4.350;2022-11-25T13:47:39;13.30;99.90
22491;DHT22;11412;50.802;4.350;2022-11-25T13:50:19;13.30;99.90
22491;DHT22;11412;50.802;4.350;2022-11-25T13:57:47;12.50;99.90
22491;DHT22;11412;50.802;4.350;2022-11-25T14:02:43;12.40;99.90
22491;DHT22;11412;50.802;4.350;2022-11-25T14:08:09;13.10;99.90
22491;DHT22;11412;50.802;4.350;2022-11-25T14:16:39;12.80;99.90
22491;DHT22;11412;50.802;4.350;2022-11-25T14:24:51;12.70;99.90
22491;DHT22;11412;50.802;4.350;2022-11-25T14:27:23;12.90;99.90
22491;DHT22;11412;50.802;4.350;2022-11-25T14:30:03;13.00;99.90
22491;DHT22;11412;50.802;4.350;2022-11-25T14:33:19;12.90;99.90
22491;DHT22;11412;50.802;4.350;2022-11-25T14:35:47;13.20;99.90
22491;DHT22;11412;50.802;4.350;2022-11-25T14:38:24;12.90;99.90
22491;DHT22;11412;50.802;4.350;2022-11-25T14:40:59;12.60;99.90
22491;DHT22;11412;50.802;4.350;2022-11-25T14:43:29;12.20;99.90
22491;DHT22;11412;50.802;4.350;2022-11-25T14:46:15;12.00;99.90
22491;DHT22;11412;50.802;4.350;2022-11-25T14:48:42;11.70;99.90
22491;DHT22;11412;50.802;4.350;2022-11-25T14:51:12;11.60;99.90
22491;DHT22;11412;50.802;4.350;2022-11-25T14:53:47;11.70;99.90
22491;DHT22;11412;50.802;4.350;2022-11-25T14:56:16;11.80;99.90
22491;DHT22;11412;50.802;4.350;2022-11-25T14:58:47;11.80;99.90
22491;DHT22;11412;50.802;4.350;2022-11-25T15:01:22;11.70;99.90
22491;DHT22;11412;50.802;4.350;2022-11-25T15:03:49;11.90;99.90
22491;DHT22;11412;50.802;4.350;2022-11-25T15:06:17;11.80;99.90
22491;DHT22;11412;50.802;4.350;2022-11-25T15:08:54;11.80;99.90
22491;DHT22;11412;50.802;4.350;2022-11-25T15:11:24;11.80;99.90
22491;DHT22;11412;50.802;4.350;2022-11-25T15:14:01;12.00;99.90
22491;DHT22;11412;50.802;4.350;2022-11-25T15:16:35;12.00;99.90
22491;DHT22;11412;50.802;4.350;2022-11-25T15:19:04;12.10;99.90
22491;DHT22;11412;50.802;4.350;2022-11-25T15:21:34;11.90;99.90
22491;DHT22;11412;50.802;4.350;2022-11-25T15:24:02;11.80;99.90
22491;DHT22;11412;50.802;4.350;2022-11-25T15:26:30;11.70;99.90
22491;DHT22;11412;50.802;4.350;2022-11-25T15:29:03;11.60;99.90
22491;DHT22;11412;50.802;4.350;2022-11-25T15:31:33;11.50;99.90
22491;DHT22;11412;50.802;4.350;2022-11-25T15:34:05;11.40;99.90
22491;DHT22;11412;50.802;4.350;2022-11-25T15:36:31;11.40;99.90
22491;DHT22;11412;50.802;4.350;2022-11-25T15:41:40;11.30;99.90
22491;DHT22;11412;50.802;4.350;2022-11-25T15:44:17;11.10;99.90
22491;DHT22;11412;50.802;4.350;2022-11-25T15:46:54;11.10;99.90
22491;DHT22;11412;50.802;4.350;2022-11-25T15:49:21;11.10;99.90
22491;DHT22;11412;50.802;4.350;2022-11-25T15:51:55;11.10;99.90
22491;DHT22;11412;50.802;4.350;2022-11-25T15:54:25;11.00;99.90
22491;DHT22;11412;50.802;4.350;2022-11-25T15:56:54;10.90;99.90
22491;DHT22;11412;50.802;4.350;2022-11-25T15:59:44;10.80;99.90
22491;DHT22;11412;50.802;4.350;2022-11-25T16:16:22;10.40;99.90
22491;DHT22;11412;50.802;4.350;2022-11-25T16:21:44;10.50;99.90
22491;DHT22;11412;50.802;4.350;2022-11-25T16:24:27;10.30;99.90
22491;DHT22;11412;50.802;4.350;2022-11-25T16:27:15;10.30;99.90
22491;DHT22;11412;50.802;4.350;2022-11-25T16:29:57;10.20;99.90
22491;DHT22;11412;50.802;4.350;2022-11-25T16:32:33;10.10;99.90
22491;DHT22;11412;50.802;4.350;2022-11-25T16:35:14;10.00;99.90
22491;DHT22;11412;50.802;4.350;2022-11-25T16:37:41;10.00;99.90
22491;DHT22;11412;50.802;4.350;2022-11-25T16:40:10;10.00;99.90
22491;DHT22;11412;50.802;4.350;2022-11-25T16:42:36;9.90;99.90
22491;DHT22;11412;50.802;4.350;2022-11-25T16:45:03;10.10;99.90
22491;DHT22;11412;50.802;4.350;2022-11-25T16:47:30;9.70;99.90
22491;DHT22;11412;50.802;4.350;2022-11-25T16:49:56;9.70;99.90
22491;DHT22;11412;50.802;4.350;2022-11-25T16:52:22;9.70;99.90
22491;DHT22;11412;50.802;4.350;2022-11-25T16:54:48;9.60;99.90
22491;DHT22;11412;50.802;4.350;2022-11-25T16:57:19;9.50;99.90
22491;DHT22;11412;50.802;4.350;2022-11-25T16:59:45;9.40;99.90
22491;DHT22;11412;50.802;4.350;2022-11-25T17:02:18;10.00;99.90
22491;DHT22;11412;50.802;4.350;2022-11-25T17:04:45;9.30;99.90
22491;DHT22;11412;50.802;4.350;2022-11-25T17:07:12;9.50;99.90
22491;DHT22;11412;50.802;4.350;2022-11-25T17:09:38;9.20;99.90
22491;DHT22;11412;50.802;4.350;2022-11-25T17:12:06;9.10;99.90
22491;DHT22;11412;50.802;4.350;2022-11-25T17:14:35;9.10;99.90
22491;DHT22;11412;50.802;4.350;2022-11-25T17:17:03;9.00;99.90
22491;DHT22;11412;50.802;4.350;2022-11-25T17:19:29;9.20;99.90
22491;DHT22;11412;50.802;4.350;2022-11-25T17:21:54;8.90;99.90
22491;DHT22;11412;50.802;4.350;2022-11-25T17:24:24;8.80;99.90
22491;DHT22;11412;50.802;4.350;2022-11-25T17:26:56;8.80;99.90
22491;DHT22;11412;50.802;4.350;2022-11-25T17:29:41;8.70;99.90
22491;DHT22;11412;50.802;4.350;2022-11-25T17:32:11;8.80;99.90
22491;DHT22;11412;50.802;4.350;2022-11-25T17:34:37;8.70;99.90
22491;DHT22;11412;50.802;4.350;2022-11-25T17:37:11;8.60;99.90
22491;DHT22;11412;50.802;4.350;2022-11-25T17:39:37;8.60;99.90
22491;DHT22;11412;50.802;4.350;2022-11-25T17:42:03;9.10;99.90
22491;DHT22;11412;50.802;4.350;2022-11-25T17:44:29;8.50;99.90
22491;DHT22;11412;50.802;4.350;2022-11-25T17:46:57;8.50;99.90
22491;DHT22;11412;50.802;4.350;2022-11-25T17:49:23;8.50;99.90
22491;DHT22;11412;50.802;4.350;2022-11-25T17:51:49;8.60;99.90
22491;DHT22;11412;50.802;4.350;2022-11-25T17:54:18;8.40;99.90
22491;DHT22;11412;50.802;4.350;2022-11-25T17:56:44;8.70;99.90
22491;DHT22;11412;50.802;4.350;2022-11-25T17:59:23;8.30;99.90
22491;DHT22;11412;50.802;4.350;2022-11-25T18:01:49;8.10;99.90
22491;DHT22;11412;50.802;4.350;2022-11-25T18:04:20;8.30;99.90
22491;DHT22;11412;50.802;4.350;2022-11-25T18:06:46;8.70;99.90